Airport ID:KCCB
Update Time (UTC):22/11/2017 16:36
Wind Speed (Knots):3
Wind Direction (Magnetic):300
Temperature (°C):25.7
Dew Point (°C):1.9
Humidity (%):21
Altimeter (inHg):30.13
Density Altitude (Feet):02900
Visibility (Miles):10
Clouds (Hundreds of feet):CLR
Present Weather:
METAR:METAR KCCB 221635Z AUTO 31004KT 10SM CLR 26/02 A3013 RMK AO2

The data displayed is for advisory purposes only and is not to be used for flight planning or operations.

This page is not automatically refreshed. Reload the page to see current data.